Time;durP1;ratioP1;P1;durP2;ratioP2;P2;SDS_P1;SDS_P2;PMS_P1;PMS_P2;Temp;Humidity;BMP_temperature;BMP_pressure;BME280_temperature;BME280_humidity;BME280_pressure;Samples;Min_cycle;Max_cycle;Signal;HPM_P1;HPM_P2
2021/05/16 00:00:16;;;;;;;0.70;0.45;;;;;;;;;;10304783;28;20390;-66
2021/05/16 00:05:15;;;;;;;0.47;0.47;;;;;;;;;;10280681;28;20037;-67
2021/05/16 00:10:14;;;;;;;0.40;0.40;;;;;;;;;;10286705;28;20044;-67
2021/05/16 00:15:13;;;;;;;0.35;0.32;;;;;;;;;;10288060;28;20037;-66
2021/05/16 00:20:12;;;;;;;0.57;0.57;;;;;;;;;;10304457;28;20577;-66
2021/05/16 00:25:11;;;;;;;0.63;0.63;;;;;;;;;;10287464;28;20048;-65
2021/05/16 00:30:10;;;;;;;0.75;0.65;;;;;;;;;;10307247;28;20075;-66
2021/05/16 00:35:09;;;;;;;0.73;0.73;;;;;;;;;;10266410;28;20037;-65
2021/05/16 00:40:06;;;;;;;;;;;;;;;;;;10285272;28;20117;-65
2021/05/16 00:45:04;;;;;;;0.80;0.77;;;;;;;;;;10306760;28;20351;-64
2021/05/16 00:50:01;;;;;;;1.13;1.13;;;;;;;;;;10298315;28;20029;-63
2021/05/16 00:54:59;;;;;;;0.70;0.70;;;;;;;;;;10285730;28;20033;-64
2021/05/16 00:59:56;;;;;;;0.70;0.70;;;;;;;;;;10289889;28;20044;-65
2021/05/16 01:04:54;;;;;;;2.70;1.23;;;;;;;;;;10306662;28;20041;-65
2021/05/16 01:09:51;;;;;;;0.57;0.57;;;;;;;;;;10305486;28;20555;-65
2021/05/16 01:14:54;;;;;;;0.80;0.80;;;;;;;;;;10296843;28;20036;-65
2021/05/16 01:19:52;;;;;;;0.85;0.77;;;;;;;;;;10290998;28;20107;-66
2021/05/16 01:24:49;;;;;;;1.37;0.90;;;;;;;;;;10301744;28;20149;-65
2021/05/16 01:29:48;;;;;;;4.97;2.60;;;;;;;;;;10291837;28;20097;-65
2021/05/16 01:34:46;;;;;;;4.97;2.97;;;;;;;;;;10296522;28;20086;-66
2021/05/16 01:39:48;;;;;;;3.77;2.40;;;;;;;;;;10302424;28;20288;-65
2021/05/16 01:44:45;;;;;;;4.95;3.20;;;;;;;;;;10296526;28;20042;-66
2021/05/16 01:49:47;;;;;;;5.03;3.03;;;;;;;;;;10295615;28;20025;-64
2021/05/16 01:54:45;;;;;;;4.28;3.25;;;;;;;;;;10318660;28;20040;-65
2021/05/16 01:59:42;;;;;;;9.73;3.88;;;;;;;;;;10288181;28;20033;-65
2021/05/16 02:04:40;;;;;;;7.23;4.17;;;;;;;;;;10283465;28;20057;-65
2021/05/16 02:09:38;;;;;;;6.40;3.93;;;;;;;;;;10283669;28;20041;-65
2021/05/16 02:14:35;;;;;;;5.30;3.67;;;;;;;;;;10283635;28;20554;-65
2021/05/16 02:19:35;;;;;;;6.90;4.88;;;;;;;;;;10279138;28;20041;-64
2021/05/16 02:24:32;;;;;;;8.10;4.80;;;;;;;;;;10301108;28;20111;-64
2021/05/16 02:29:34;;;;;;;9.35;5.18;;;;;;;;;;10314410;28;20025;-64
2021/05/16 02:34:32;;;;;;;7.37;4.63;;;;;;;;;;10293162;28;20038;-64
2021/05/16 02:39:30;;;;;;;;;;;;;;;;;;10314905;28;20035;-65
2021/05/16 02:44:28;;;;;;;5.93;4.10;;;;;;;;;;10324897;28;19921;-65
2021/05/16 02:49:26;;;;;;;4.80;2.75;;;;;;;;;;10337451;28;20397;-65
2021/05/16 02:54:24;;;;;;;5.03;2.80;;;;;;;;;;10324202;28;20121;-64
2021/05/16 02:59:25;;;;;;;5.73;3.70;;;;;;;;;;10318412;28;20298;-66
2021/05/16 03:04:22;;;;;;;3.85;3.20;;;;;;;;;;10330168;28;20040;-64
2021/05/16 03:09:20;;;;;;;2.90;2.30;;;;;;;;;;10331446;28;20033;-66
2021/05/16 03:14:18;;;;;;;4.10;2.92;;;;;;;;;;10293374;28;20049;-67
2021/05/16 03:19:16;;;;;;;6.33;3.93;;;;;;;;;;10289627;28;20029;-66
2021/05/16 03:24:16;;;;;;;5.57;3.55;;;;;;;;;;10326567;28;20056;-67
2021/05/16 03:29:14;;;;;;;8.60;3.53;;;;;;;;;;10320864;28;20536;-66
2021/05/16 03:34:12;;;;;;;5.28;2.30;;;;;;;;;;10313438;28;20041;-66
2021/05/16 03:39:09;;;;;;;4.90;2.60;;;;;;;;;;10336098;28;20077;-66
2021/05/16 03:44:07;;;;;;;6.93;4.03;;;;;;;;;;10306849;28;20083;-66
2021/05/16 03:49:04;;;;;;;3.83;3.37;;;;;;;;;;10306003;28;20499;-66
2021/05/16 03:54:02;;;;;;;9.63;4.60;;;;;;;;;;10320886;28;20049;-66
2021/05/16 03:58:59;;;;;;;7.83;4.27;;;;;;;;;;10324302;28;20037;-66
2021/05/16 04:03:57;;;;;;;6.97;4.33;;;;;;;;;;10325144;28;20052;-67
2021/05/16 04:08:54;;;;;;;7.33;5.00;;;;;;;;;;10317945;28;20032;-66
2021/05/16 04:13:52;;;;;;;8.37;5.00;;;;;;;;;;10342547;28;20079;-66
2021/05/16 04:18:49;;;;;;;7.83;4.60;;;;;;;;;;10330718;28;20060;-66
2021/05/16 04:23:47;;;;;;;9.50;4.90;;;;;;;;;;10295935;28;20048;-65
2021/05/16 04:28:44;;;;;;;8.57;5.37;;;;;;;;;;10338574;28;20025;-66
2021/05/16 04:33:42;;;;;;;10.37;4.93;;;;;;;;;;10335527;28;20033;-65
2021/05/16 04:38:39;;;;;;;6.63;4.53;;;;;;;;;;10287671;28;20037;-66
2021/05/16 04:43:37;;;;;;;8.00;4.57;;;;;;;;;;10321048;28;20156;-66
2021/05/16 04:48:34;;;;;;;8.03;5.30;;;;;;;;;;10338664;28;20419;-68
2021/05/16 04:53:34;;;;;;;9.80;4.23;;;;;;;;;;10334663;28;20056;-68
2021/05/16 04:58:31;;;;;;;9.18;4.40;;;;;;;;;;10304606;28;20041;-68
2021/05/16 05:03:29;;;;;;;7.57;5.10;;;;;;;;;;10312125;28;20049;-66
2021/05/16 05:08:26;;;;;;;9.37;4.60;;;;;;;;;;10319704;28;20045;-66
2021/05/16 05:13:24;;;;;;;6.83;4.80;;;;;;;;;;10305053;28;20038;-66
2021/05/16 05:18:22;;;;;;;8.73;4.45;;;;;;;;;;10318020;28;20056;-66
2021/05/16 05:23:19;;;;;;;7.27;4.10;;;;;;;;;;10322776;28;20120;-67
2021/05/16 05:28:17;;;;;;;5.20;3.60;;;;;;;;;;10304041;28;20044;-65
2021/05/16 05:33:15;;;;;;;4.73;3.07;;;;;;;;;;10323956;28;20631;-66
2021/05/16 05:38:13;;;;;;;6.30;3.53;;;;;;;;;;10330177;28;20044;-67
2021/05/16 05:43:10;;;;;;;5.77;3.63;;;;;;;;;;10310874;28;20453;-67
2021/05/16 05:48:07;;;;;;;3.67;3.00;;;;;;;;;;10293947;28;20040;-66
2021/05/16 05:53:06;;;;;;;5.57;3.53;;;;;;;;;;10316098;28;20051;-67
2021/05/16 05:58:03;;;;;;;5.00;3.08;;;;;;;;;;10325265;28;20053;-66
2021/05/16 06:03:01;;;;;;;4.47;3.10;;;;;;;;;;10250155;28;20573;-66
2021/05/16 06:07:58;;;;;;;7.40;3.30;;;;;;;;;;10289840;28;20030;-66
2021/05/16 06:12:56;;;;;;;6.40;3.50;;;;;;;;;;10295381;28;20100;-63
2021/05/16 06:17:53;;;;;;;4.23;3.30;;;;;;;;;;10289886;28;20038;-67
2021/05/16 06:22:50;;;;;;;3.93;3.43;;;;;;;;;;10288225;28;20881;-65
2021/05/16 06:27:48;;;;;;;5.87;3.70;;;;;;;;;;10284246;28;20399;-65
2021/05/16 06:32:45;;;;;;;5.00;3.67;;;;;;;;;;10266913;28;20036;-65
2021/05/16 06:37:44;;;;;;;4.87;3.13;;;;;;;;;;10282680;28;20168;-66
2021/05/16 06:42:42;;;;;;;;;;;;;;;;;;10278399;28;20051;-65
2021/05/16 06:47:39;;;;;;;5.90;3.83;;;;;;;;;;10284197;28;19913;-64
2021/05/16 06:52:37;;;;;;;7.83;4.77;;;;;;;;;;10278606;28;20014;-64
2021/05/16 06:57:34;;;;;;;5.57;3.90;;;;;;;;;;10280653;28;20113;-65
2021/05/16 07:02:31;;;;;;;7.37;3.73;;;;;;;;;;10255390;28;20494;-63
2021/05/16 07:07:29;;;;;;;7.60;5.03;;;;;;;;;;10272508;28;20041;-64
2021/05/16 07:12:26;;;;;;;8.17;5.17;;;;;;;;;;10286909;28;20486;-63
2021/05/16 07:17:24;;;;;;;8.33;4.90;;;;;;;;;;10260490;28;20026;-64
2021/05/16 07:22:22;;;;;;;9.43;5.07;;;;;;;;;;10281794;28;20052;-64
2021/05/16 07:27:19;;;;;;;6.30;4.33;;;;;;;;;;10270974;28;20027;-63
2021/05/16 07:32:17;;;;;;;7.93;4.73;;;;;;;;;;10276123;28;20355;-63
2021/05/16 07:37:14;;;;;;;6.70;4.23;;;;;;;;;;10275072;28;20038;-63
2021/05/16 07:42:12;;;;;;;6.37;3.40;;;;;;;;;;10278212;28;20585;-63
2021/05/16 07:47:10;;;;;;;3.33;2.60;;;;;;;;;;10281383;28;20039;-63
2021/05/16 07:52:07;;;;;;;5.60;3.57;;;;;;;;;;10294955;28;20039;-64
2021/05/16 07:57:07;;;;;;;5.50;3.33;;;;;;;;;;10270800;28;20035;-64
2021/05/16 08:02:05;;;;;;;3.55;2.90;;;;;;;;;;10254239;28;20047;-66
2021/05/16 08:07:02;;;;;;;3.67;2.70;;;;;;;;;;10274301;28;20589;-64
2021/05/16 08:12:00;;;;;;;5.10;3.60;;;;;;;;;;10271368;28;20683;-63
2021/05/16 08:16:57;;;;;;;5.93;4.07;;;;;;;;;;10276114;28;20124;-66
2021/05/16 08:21:54;;;;;;;8.80;4.90;;;;;;;;;;10291434;28;20037;-65
2021/05/16 08:26:52;;;;;;;7.73;4.10;;;;;;;;;;10271634;28;20029;-64
2021/05/16 08:31:50;;;;;;;5.17;3.30;;;;;;;;;;10286266;28;20038;-64
2021/05/16 08:36:48;;;;;;;;;;;;;;;;;;10286149;28;20037;-64
2021/05/16 08:41:45;;;;;;;5.63;3.33;;;;;;;;;;10283017;28;19974;-62
2021/05/16 08:46:43;;;;;;;6.30;3.53;;;;;;;;;;10288457;28;20037;-63
2021/05/16 08:51:44;;;;;;;5.07;2.97;;;;;;;;;;10275088;28;20037;-64
2021/05/16 08:56:42;;;;;;;7.00;3.08;;;;;;;;;;10282056;28;20183;-64
2021/05/16 09:01:49;;;;;;;3.30;2.30;;;;;;;;;;10257474;28;20033;-64
2021/05/16 09:06:50;;;;;;;4.82;3.35;;;;;;;;;;10278421;28;20526;-63
2021/05/16 09:11:55;;;;;;;7.93;3.88;;;;;;;;;;10287738;28;20508;-64
2021/05/16 09:16:52;;;;;;;6.85;4.22;;;;;;;;;;10265363;28;20577;-64
2021/05/16 09:21:50;;;;;;;6.60;5.00;;;;;;;;;;10276825;28;20041;-64
2021/05/16 09:26:58;;;;;;;7.77;4.87;;;;;;;;;;10281171;28;20044;-63
2021/05/16 09:31:57;;;;;;;6.50;3.35;;;;;;;;;;10282363;28;20037;-65
2021/05/16 09:36:54;;;;;;;10.15;5.15;;;;;;;;;;10285234;28;20120;-64
2021/05/16 09:41:55;;;;;;;15.98;10.98;;;;;;;;;;10290715;28;20412;-63
2021/05/16 09:47:19;;;;;;;6.22;3.38;;;;;;;;;;10266438;28;20667;-64
2021/05/16 09:52:32;;;;;;;8.18;4.05;;;;;;;;;;10269391;28;20132;-63
2021/05/16 09:57:34;;;;;;;7.88;3.50;;;;;;;;;;10278379;28;20045;-62
2021/05/16 10:02:32;;;;;;;9.90;4.93;;;;;;;;;;10278211;28;20099;-66
2021/05/16 10:07:30;;;;;;;5.30;2.40;;;;;;;;;;10281203;28;20073;-62
2021/05/16 10:12:28;;;;;;;8.18;2.83;;;;;;;;;;10264609;28;20045;-62
2021/05/16 10:17:25;;;;;;;4.80;2.00;;;;;;;;;;10278398;28;21130;-62
2021/05/16 10:22:26;;;;;;;3.10;1.73;;;;;;;;;;10292065;28;20030;-64
2021/05/16 10:27:29;;;;;;;2.25;2.05;;;;;;;;;;10263378;28;20029;-62
2021/05/16 10:32:32;;;;;;;11.35;3.10;;;;;;;;;;10275338;28;20017;-61
2021/05/16 10:37:43;;;;;;;4.45;2.22;;;;;;;;;;10274101;28;20128;-62
2021/05/16 10:42:41;;;;;;;1.75;1.25;;;;;;;;;;10301170;28;20779;-64
2021/05/16 10:47:38;;;;;;;;;;;;;;;;;;10289651;28;20029;-62
2021/05/16 10:52:35;;;;;;;4.85;0.85;;;;;;;;;;10285799;28;19909;-62
2021/05/16 10:57:37;;;;;;;1.53;1.03;;;;;;;;;;10290375;28;20029;-62
2021/05/16 11:02:53;;;;;;;1.70;1.25;;;;;;;;;;10280551;28;20370;-63
2021/05/16 11:07:50;;;;;;;1.38;0.93;;;;;;;;;;10282441;28;20113;-64
2021/05/16 11:12:48;;;;;;;0.93;0.53;;;;;;;;;;10292587;28;20029;-64
2021/05/16 11:17:46;;;;;;;1.30;1.20;;;;;;;;;;10255901;28;20025;-63
2021/05/16 11:22:43;;;;;;;2.73;1.67;;;;;;;;;;10275845;28;20671;-63
2021/05/16 11:27:40;;;;;;;4.17;0.97;;;;;;;;;;10279411;28;20489;-62
2021/05/16 11:32:38;;;;;;;3.40;0.53;;;;;;;;;;10283291;28;20025;-63
2021/05/16 11:37:35;;;;;;;1.33;0.93;;;;;;;;;;10268008;28;20045;-62
2021/05/16 11:42:33;;;;;;;1.00;0.90;;;;;;;;;;10281746;28;20037;-63
2021/05/16 11:47:34;;;;;;;3.53;1.20;;;;;;;;;;10287478;28;20029;-62
2021/05/16 11:52:31;;;;;;;1.55;0.77;;;;;;;;;;10259983;28;20037;-64
2021/05/16 11:57:30;;;;;;;1.77;0.73;;;;;;;;;;10276005;28;20502;-64
2021/05/16 12:02:33;;;;;;;4.72;0.77;;;;;;;;;;10258586;28;20037;-64
2021/05/16 12:07:31;;;;;;;0.65;0.52;;;;;;;;;;10284379;28;20563;-65
2021/05/16 12:12:28;;;;;;;1.13;0.80;;;;;;;;;;10284057;28;20042;-64
2021/05/16 12:17:33;;;;;;;1.80;0.80;;;;;;;;;;10288306;28;20292;-62
2021/05/16 12:22:34;;;;;;;0.77;0.77;;;;;;;;;;10244663;28;20204;-62
2021/05/16 12:27:32;;;;;;;2.58;1.00;;;;;;;;;;10248988;28;20041;-63
2021/05/16 12:32:30;;;;;;;2.67;0.75;;;;;;;;;;10233888;28;20045;-63
2021/05/16 12:37:28;;;;;;;8.05;0.73;;;;;;;;;;10276338;28;20045;-64
2021/05/16 12:42:27;;;;;;;0.70;0.70;;;;;;;;;;10284564;28;20519;-65
2021/05/16 12:47:26;;;;;;;0.45;0.25;;;;;;;;;;10282570;28;20030;-63
2021/05/16 12:52:26;;;;;;;11.68;0.90;;;;;;;;;;10268550;28;20041;-63
2021/05/16 12:57:26;;;;;;;2.20;0.52;;;;;;;;;;10276522;28;20041;-62
2021/05/16 13:02:28;;;;;;;0.13;0.13;;;;;;;;;;10261399;28;20038;-63
2021/05/16 13:07:55;;;;;;;1.40;0.73;;;;;;;;;;10271126;28;20036;-66
2021/05/16 13:12:52;;;;;;;0.45;0.22;;;;;;;;;;10267940;28;20064;-64
2021/05/16 13:17:50;;;;;;;3.23;0.97;;;;;;;;;;10286936;28;20036;-62
2021/05/16 13:22:47;;;;;;;4.37;1.77;;;;;;;;;;10296212;28;20034;-64
2021/05/16 13:27:52;;;;;;;0.53;0.37;;;;;;;;;;10295002;28;20499;-64
2021/05/16 13:32:50;;;;;;;3.00;0.95;;;;;;;;;;10289070;28;20033;-63
2021/05/16 13:37:47;;;;;;;1.80;0.50;;;;;;;;;;10277486;28;20491;-63
2021/05/16 13:42:45;;;;;;;1.30;0.40;;;;;;;;;;10290156;28;20068;-62
2021/05/16 13:47:42;;;;;;;0.50;0.50;;;;;;;;;;10292648;28;20050;-61
2021/05/16 13:52:41;;;;;;;1.80;0.40;;;;;;;;;;10265409;28;20102;-62
2021/05/16 13:57:38;;;;;;;2.90;0.50;;;;;;;;;;10266555;28;20056;-62
2021/05/16 14:02:36;;;;;;;2.07;0.77;;;;;;;;;;10294270;28;20040;-62
2021/05/16 14:07:33;;;;;;;0.90;0.43;;;;;;;;;;10282220;28;20105;-61
2021/05/16 14:12:32;;;;;;;0.47;0.30;;;;;;;;;;10300044;28;20041;-62
2021/05/16 14:17:29;;;;;;;1.27;0.43;;;;;;;;;;10290064;28;20049;-62
2021/05/16 14:22:27;;;;;;;0.87;0.40;;;;;;;;;;10283400;28;20044;-60
2021/05/16 14:27:27;;;;;;;0.50;0.40;;;;;;;;;;10273965;28;20029;-61
2021/05/16 14:32:25;;;;;;;1.17;0.20;;;;;;;;;;10286454;28;20614;-60
2021/05/16 14:37:23;;;;;;;0.38;0.30;;;;;;;;;;10279032;28;20430;-61
2021/05/16 14:42:20;;;;;;;0.30;0.30;;;;;;;;;;10279412;28;20033;-60
2021/05/16 14:47:18;;;;;;;0.47;0.27;;;;;;;;;;10286444;28;20037;-59
2021/05/16 14:52:17;;;;;;;2.83;0.33;;;;;;;;;;10287356;28;20112;-60
2021/05/16 14:57:14;;;;;;;0.10;0.10;;;;;;;;;;10285961;28;20045;-60
2021/05/16 15:02:12;;;;;;;0.27;0.20;;;;;;;;;;10280979;28;20051;-61
2021/05/16 15:07:10;;;;;;;0.37;0.13;;;;;;;;;;10266481;28;20045;-62
2021/05/16 15:12:07;;;;;;;;;;;;;;;;;;10267723;28;20033;-60
2021/05/16 15:17:05;;;;;;;0.30;0.30;;;;;;;;;;10237677;28;20340;-61
2021/05/16 15:22:06;;;;;;;0.00;0.00;;;;;;;;;;10287578;28;20049;-62
2021/05/16 15:27:04;;;;;;;0.32;0.10;;;;;;;;;;10282793;28;20030;-61
2021/05/16 15:32:02;;;;;;;0.43;0.10;;;;;;;;;;10283421;28;20053;-64
2021/05/16 15:36:59;;;;;;;0.10;0.10;;;;;;;;;;10288235;28;20346;-61
2021/05/16 15:41:57;;;;;;;0.30;0.30;;;;;;;;;;10290700;28;20040;-61
2021/05/16 15:46:55;;;;;;;0.32;0.10;;;;;;;;;;10253364;28;20076;-60
2021/05/16 15:51:53;;;;;;;0.65;0.10;;;;;;;;;;10287201;28;20132;-61
2021/05/16 15:56:50;;;;;;;0.00;0.00;;;;;;;;;;10284025;28;20040;-61
2021/05/16 16:01:48;;;;;;;0.00;0.00;;;;;;;;;;10282484;28;20042;-61
2021/05/16 16:06:46;;;;;;;0.05;0.05;;;;;;;;;;10279569;28;20549;-61
2021/05/16 16:11:43;;;;;;;0.07;0.07;;;;;;;;;;10282801;28;20648;-61
2021/05/16 16:16:40;;;;;;;0.10;0.10;;;;;;;;;;10264898;28;20506;-61
2021/05/16 16:21:38;;;;;;;1.55;0.52;;;;;;;;;;10277738;28;20284;-61
2021/05/16 16:26:36;;;;;;;0.20;0.20;;;;;;;;;;10286441;28;20037;-61
2021/05/16 16:31:33;;;;;;;0.57;0.33;;;;;;;;;;10283693;28;20042;-61
2021/05/16 16:36:31;;;;;;;0.20;0.20;;;;;;;;;;10270855;28;20041;-63
2021/05/16 16:41:28;;;;;;;0.30;0.20;;;;;;;;;;10284435;28;20041;-63
2021/05/16 16:46:25;;;;;;;0.70;0.30;;;;;;;;;;10267608;28;20622;-63
2021/05/16 16:51:24;;;;;;;1.03;0.80;;;;;;;;;;10285006;28;20125;-64
2021/05/16 16:56:21;;;;;;;28.20;5.53;;;;;;;;;;10286172;28;20376;-61
2021/05/16 17:01:19;;;;;;;32.20;8.48;;;;;;;;;;10280707;28;20390;-63
2021/05/16 17:06:16;;;;;;;9.27;3.67;;;;;;;;;;10293003;28;20128;-63
2021/05/16 17:11:15;;;;;;;9.63;2.53;;;;;;;;;;10256705;28;20038;-62
2021/05/16 17:16:14;;;;;;;11.83;2.47;;;;;;;;;;10293717;28;20115;-61
2021/05/16 17:21:12;;;;;;;5.85;1.65;;;;;;;;;;10265813;28;20044;-61
2021/05/16 17:26:09;;;;;;;6.87;2.17;;;;;;;;;;10288437;28;20033;-62
2021/05/16 17:31:06;;;;;;;5.00;1.90;;;;;;;;;;10290995;28;20030;-60
2021/05/16 17:36:04;;;;;;;5.07;1.80;;;;;;;;;;10287150;28;20037;-61
2021/05/16 17:41:01;;;;;;;1.27;0.95;;;;;;;;;;10282294;28;20026;-61
2021/05/16 17:45:59;;;;;;;3.60;0.60;;;;;;;;;;10284246;28;20049;-60
2021/05/16 17:50:56;;;;;;;1.50;0.53;;;;;;;;;;10271754;28;20037;-61
2021/05/16 17:55:53;;;;;;;2.33;0.50;;;;;;;;;;10288637;28;20422;-61
2021/05/16 18:00:52;;;;;;;1.07;0.47;;;;;;;;;;10291176;28;20216;-60
2021/05/16 18:05:50;;;;;;;2.42;0.45;;;;;;;;;;10284952;28;20041;-62
2021/05/16 18:10:47;;;;;;;1.13;0.60;;;;;;;;;;10291637;28;20293;-64
2021/05/16 18:15:44;;;;;;;1.03;0.20;;;;;;;;;;10292074;28;20827;-62
2021/05/16 18:20:49;;;;;;;0.17;0.17;;;;;;;;;;10285469;28;20284;-63
2021/05/16 18:25:46;;;;;;;2.00;0.63;;;;;;;;;;10289102;28;20442;-63
2021/05/16 18:30:47;;;;;;;3.27;1.13;;;;;;;;;;10288523;28;20068;-63
2021/05/16 18:35:45;;;;;;;3.95;0.63;;;;;;;;;;10272994;28;20280;-63
2021/05/16 18:40:42;;;;;;;2.00;1.17;;;;;;;;;;10273204;28;20041;-63
2021/05/16 18:45:40;;;;;;;2.63;0.40;;;;;;;;;;10275201;28;20077;-63
2021/05/16 18:50:38;;;;;;;1.70;0.50;;;;;;;;;;10298131;28;20060;-64
2021/05/16 18:55:35;;;;;;;1.20;0.60;;;;;;;;;;10272374;28;20430;-62
2021/05/16 19:00:33;;;;;;;3.10;0.50;;;;;;;;;;10271045;28;20052;-64
2021/05/16 19:05:30;;;;;;;0.57;0.53;;;;;;;;;;10280180;28;20516;-63
2021/05/16 19:10:27;;;;;;;0.53;0.43;;;;;;;;;;10269936;28;20041;-63
2021/05/16 19:15:27;;;;;;;1.30;0.37;;;;;;;;;;10266486;28;20045;-63
2021/05/16 19:20:24;;;;;;;0.88;0.50;;;;;;;;;;10290268;28;20526;-63
2021/05/16 19:25:21;;;;;;;0.20;0.20;;;;;;;;;;10282621;28;20522;-63
2021/05/16 19:30:19;;;;;;;0.63;0.40;;;;;;;;;;10275999;28;20037;-62
2021/05/16 19:35:17;;;;;;;0.50;0.47;;;;;;;;;;10288425;28;20044;-63
2021/05/16 19:40:14;;;;;;;0.67;0.30;;;;;;;;;;10284678;28;20029;-64
2021/05/16 19:45:12;;;;;;;0.63;0.30;;;;;;;;;;10288307;28;20087;-63
2021/05/16 19:50:10;;;;;;;3.00;0.30;;;;;;;;;;10289071;28;20037;-63
2021/05/16 19:55:08;;;;;;;0.20;0.20;;;;;;;;;;10274149;28;20033;-63
2021/05/16 20:00:07;;;;;;;0.30;0.28;;;;;;;;;;10274193;28;20132;-63
2021/05/16 20:05:06;;;;;;;0.10;0.10;;;;;;;;;;10252772;28;20041;-63
2021/05/16 20:10:05;;;;;;;1.17;0.30;;;;;;;;;;10250328;28;20116;-63
2021/05/16 20:15:03;;;;;;;0.40;0.30;;;;;;;;;;10262220;28;20045;-63
2021/05/16 20:20:01;;;;;;;1.55;0.30;;;;;;;;;;10264787;28;20458;-65
2021/05/16 20:24:58;;;;;;;1.83;0.37;;;;;;;;;;10270580;28;20253;-62
2021/05/16 20:30:01;;;;;;;1.57;0.40;;;;;;;;;;10270168;28;20477;-64
2021/05/16 20:34:59;;;;;;;0.63;0.55;;;;;;;;;;10286103;28;20045;-63
2021/05/16 20:39:56;;;;;;;2.13;1.40;;;;;;;;;;10286438;28;20045;-62
2021/05/16 20:44:54;;;;;;;1.27;0.80;;;;;;;;;;10291134;28;20056;-62
2021/05/16 20:49:51;;;;;;;2.87;0.90;;;;;;;;;;10277750;28;20037;-61
2021/05/16 20:54:48;;;;;;;2.90;0.70;;;;;;;;;;10282007;28;20500;-62
2021/05/16 20:59:46;;;;;;;2.10;1.07;;;;;;;;;;10279211;28;20310;-62
2021/05/16 21:04:43;;;;;;;0.77;0.77;;;;;;;;;;10285190;28;20045;-62
2021/05/16 21:09:40;;;;;;;2.30;0.90;;;;;;;;;;10278884;28;20581;-63
2021/05/16 21:14:38;;;;;;;2.07;1.10;;;;;;;;;;10270521;28;20041;-62
2021/05/16 21:19:36;;;;;;;2.90;1.13;;;;;;;;;;10289510;28;20037;-62
2021/05/16 21:24:34;;;;;;;3.50;1.02;;;;;;;;;;10295132;28;20087;-62
2021/05/16 21:29:31;;;;;;;2.50;1.50;;;;;;;;;;10273394;28;20083;-62
2021/05/16 21:34:29;;;;;;;4.13;1.80;;;;;;;;;;10282435;28;20049;-62
2021/05/16 21:39:26;;;;;;;1.67;1.03;;;;;;;;;;10297866;28;20077;-62
2021/05/16 21:44:24;;;;;;;2.03;1.33;;;;;;;;;;10290560;28;20048;-62
2021/05/16 21:49:21;;;;;;;0.93;0.90;;;;;;;;;;10300677;28;20061;-62
2021/05/16 21:54:19;;;;;;;0.83;0.73;;;;;;;;;;10286978;28;20086;-63
2021/05/16 21:59:16;;;;;;;1.67;1.57;;;;;;;;;;10270012;28;20038;-62
2021/05/16 22:04:14;;;;;;;2.73;1.80;;;;;;;;;;10288356;28;20042;-61
2021/05/16 22:09:11;;;;;;;1.73;1.57;;;;;;;;;;10290109;28;20041;-62
2021/05/16 22:14:09;;;;;;;1.67;1.00;;;;;;;;;;10283620;28;20827;-59
2021/05/16 22:19:07;;;;;;;1.27;1.20;;;;;;;;;;10281489;28;20049;-62
2021/05/16 22:24:04;;;;;;;1.70;1.30;;;;;;;;;;10275341;28;20340;-63
2021/05/16 22:29:02;;;;;;;2.17;1.60;;;;;;;;;;10281490;28;20510;-62
2021/05/16 22:33:59;;;;;;;3.07;1.60;;;;;;;;;;10282208;28;20025;-62
2021/05/16 22:38:57;;;;;;;1.60;1.37;;;;;;;;;;10276265;28;20052;-63
2021/05/16 22:43:54;;;;;;;0.97;0.70;;;;;;;;;;10265645;28;20025;-64
2021/05/16 22:48:52;;;;;;;3.23;1.90;;;;;;;;;;10292973;28;20041;-65
2021/05/16 22:53:49;;;;;;;1.83;1.17;;;;;;;;;;10286058;28;20470;-63
2021/05/16 22:58:46;;;;;;;4.17;2.23;;;;;;;;;;10270233;28;20029;-64
2021/05/16 23:03:44;;;;;;;1.87;1.23;;;;;;;;;;10282523;28;20076;-64
2021/05/16 23:08:42;;;;;;;2.63;1.67;;;;;;;;;;10292180;28;20029;-63
2021/05/16 23:13:39;;;;;;;0.60;0.57;;;;;;;;;;10292861;28;20041;-64
2021/05/16 23:18:38;;;;;;;2.20;1.37;;;;;;;;;;10283462;28;20288;-63
2021/05/16 23:23:35;;;;;;;0.90;0.55;;;;;;;;;;10290875;28;20187;-62
2021/05/16 23:28:33;;;;;;;1.80;1.00;;;;;;;;;;10280623;28;20392;-62
2021/05/16 23:33:31;;;;;;;0.93;0.80;;;;;;;;;;10284132;28;20083;-62
2021/05/16 23:38:30;;;;;;;2.70;1.90;;;;;;;;;;10287726;28;20045;-62
2021/05/16 23:43:27;;;;;;;0.80;0.68;;;;;;;;;;10281178;28;20095;-61
2021/05/16 23:48:25;;;;;;;1.20;0.63;;;;;;;;;;10300963;28;20033;-62
2021/05/16 23:53:22;;;;;;;0.93;0.57;;;;;;;;;;10277880;28;20346;-62
2021/05/16 23:58:19;;;;;;;2.00;1.50;;;;;;;;;;10278587;28;20071;-62
